createdAt,value
2023-01-25T00:00:35.998Z,26.03
2023-01-25T00:03:04.018Z,25.53
2023-01-25T00:05:31.955Z,24.23
2023-01-25T00:07:59.883Z,22.90
2023-01-25T00:10:27.774Z,22.77
2023-01-25T00:12:57.759Z,21.47
2023-01-25T00:15:25.706Z,21.80
2023-01-25T00:17:53.626Z,22.27
2023-01-25T00:20:21.554Z,21.33
2023-01-25T00:22:49.528Z,21.40
2023-01-25T00:25:17.491Z,20.70
2023-01-25T00:27:45.374Z,21.13
2023-01-25T00:30:15.999Z,23.67
2023-01-25T00:32:55.370Z,22.80
2023-01-25T00:35:23.467Z,20.03
2023-01-25T00:37:51.393Z,20.30
2023-01-25T00:40:19.478Z,21.33
2023-01-25T00:42:47.411Z,20.73
2023-01-25T00:45:17.573Z,20.20
2023-01-25T00:47:45.506Z,21.40
2023-01-25T00:50:13.432Z,21.87
2023-01-25T00:52:41.737Z,21.43
2023-01-25T00:55:10.463Z,21.40
2023-01-25T00:57:38.546Z,21.27
2023-01-25T01:00:07.525Z,20.47
2023-01-25T01:02:36.860Z,21.33
2023-01-25T01:05:05.066Z,20.03
2023-01-25T01:07:33.105Z,20.83
2023-01-25T01:10:01.393Z,21.27
2023-01-25T01:12:29.326Z,21.17
2023-01-25T01:14:57.752Z,20.60
2023-01-25T01:17:25.843Z,20.40
2023-01-25T01:19:55.093Z,22.20
2023-01-25T01:22:23.022Z,21.13
2023-01-25T01:24:51.019Z,22.97
2023-01-25T01:27:18.903Z,22.13
2023-01-25T01:29:47.096Z,21.77
2023-01-25T01:32:15.188Z,21.93
2023-01-25T01:34:44.488Z,22.03
2023-01-25T01:37:13.775Z,21.73
2023-01-25T01:39:41.685Z,22.70
2023-01-25T01:42:09.613Z,23.10
2023-01-25T01:44:45.932Z,22.80
2023-01-25T01:47:15.061Z,23.90
2023-01-25T01:49:42.977Z,23.80
2023-01-25T01:52:11.947Z,22.63
2023-01-25T01:54:42.624Z,23.33
2023-01-25T01:57:11.739Z,22.70
2023-01-25T01:59:42.348Z,22.90
2023-01-25T02:02:10.322Z,22.97
2023-01-25T02:04:38.590Z,23.77
2023-01-25T02:07:07.972Z,22.70
2023-01-25T02:09:35.991Z,23.20
2023-01-25T02:12:05.757Z,23.33
2023-01-25T02:14:33.666Z,22.70
2023-01-25T02:17:01.633Z,23.37
2023-01-25T02:19:35.779Z,23.23
2023-01-25T02:22:07.645Z,23.70
2023-01-25T02:24:35.624Z,23.43
2023-01-25T02:27:05.165Z,23.57
2023-01-25T02:29:33.088Z,24.03
2023-01-25T02:32:01.441Z,21.53
2023-01-25T02:34:29.416Z,23.40
2023-01-25T02:36:57.358Z,23.40
2023-01-25T02:39:26.672Z,23.10
2023-01-25T02:41:54.590Z,23.80
2023-01-25T02:44:25.386Z,23.57
2023-01-25T02:46:53.382Z,22.37
2023-01-25T02:49:21.256Z,22.07
2023-01-25T02:51:50.463Z,22.57
2023-01-25T02:54:19.049Z,23.10
2023-01-25T02:56:46.945Z,21.93
2023-01-25T02:59:14.928Z,21.80
2023-01-25T03:01:44.517Z,22.07
2023-01-25T03:04:12.497Z,21.83
2023-01-25T03:06:40.595Z,21.13
2023-01-25T03:09:10.392Z,20.77
2023-01-25T03:11:38.340Z,21.20
2023-01-25T03:14:06.334Z,21.63
2023-01-25T03:16:34.392Z,20.13
2023-01-25T03:19:03.749Z,19.10
2023-01-25T03:21:31.717Z,20.70
2023-01-25T03:24:00.476Z,20.27
2023-01-25T03:26:29.956Z,20.23
2023-01-25T03:28:57.914Z,22.13
2023-01-25T03:31:25.937Z,21.00
2023-01-25T03:33:53.897Z,21.10
2023-01-25T03:36:23.302Z,21.00
2023-01-25T03:38:51.269Z,21.63
2023-01-25T03:41:19.213Z,20.47
2023-01-25T03:43:47.123Z,20.40
2023-01-25T03:46:15.142Z,20.63
2023-01-25T03:48:43.034Z,19.90
2023-01-25T03:51:10.986Z,20.30
2023-01-25T03:53:40.394Z,19.30
2023-01-25T03:56:09.717Z,19.67
2023-01-25T03:58:38.349Z,20.73
2023-01-25T04:01:07.176Z,19.70
2023-01-25T04:03:35.549Z,20.13
2023-01-25T04:06:03.471Z,19.93
2023-01-25T04:08:31.516Z,20.33
2023-01-25T04:11:02.510Z,20.27
2023-01-25T04:13:30.440Z,19.47
2023-01-25T04:15:58.410Z,22.10
2023-01-25T04:18:26.315Z,18.97
2023-01-25T04:20:54.624Z,19.50
2023-01-25T04:23:22.782Z,19.23
2023-01-25T04:25:54.261Z,19.60
2023-01-25T04:28:23.619Z,19.23
2023-01-25T04:30:51.616Z,19.90
2023-01-25T04:33:19.532Z,19.70
2023-01-25T04:35:47.441Z,19.87
2023-01-25T04:38:15.331Z,19.27
2023-01-25T04:40:43.426Z,18.70
2023-01-25T04:43:11.612Z,19.57
2023-01-25T04:45:41.048Z,19.90
2023-01-25T04:48:10.902Z,20.80
2023-01-25T04:50:39.039Z,19.73
2023-01-25T04:53:06.988Z,20.40
2023-01-25T04:55:35.208Z,19.87
2023-01-25T04:58:03.521Z,18.80
2023-01-25T05:00:31.452Z,20.60
2023-01-25T05:03:00.760Z,19.27
2023-01-25T05:05:28.692Z,20.87
2023-01-25T05:07:56.578Z,19.50
2023-01-25T05:10:24.537Z,18.80
2023-01-25T05:12:52.706Z,19.93
2023-01-25T05:15:20.613Z,19.60
2023-01-25T05:17:48.638Z,19.40
2023-01-25T05:20:18.221Z,18.93
2023-01-25T05:22:46.141Z,19.90
2023-01-25T05:25:27.898Z,20.53
2023-01-25T05:27:55.835Z,17.60
2023-01-25T05:30:23.835Z,19.73
2023-01-25T05:32:51.827Z,18.87
2023-01-25T05:35:21.139Z,19.83
2023-01-25T05:37:49.074Z,19.23
2023-01-25T05:40:17.108Z,18.10
2023-01-25T05:42:45.008Z,19.13
2023-01-25T05:45:13.079Z,19.67
2023-01-25T05:47:41.083Z,19.53
2023-01-25T05:50:09.980Z,17.97
2023-01-25T05:52:39.280Z,18.37
2023-01-25T05:55:08.087Z,17.60
2023-01-25T05:57:36.234Z,20.20
2023-01-25T06:00:04.882Z,19.13
2023-01-25T06:02:33.302Z,17.17
2023-01-25T06:05:01.301Z,17.23
2023-01-25T06:07:29.212Z,18.73
2023-01-25T06:09:58.522Z,20.27
2023-01-25T06:12:27.800Z,19.53
2023-01-25T06:14:57.115Z,20.50
2023-01-25T06:17:25.156Z,18.57
2023-01-25T06:19:53.110Z,19.47
2023-01-25T06:22:21.054Z,19.70
2023-01-25T06:24:49.057Z,19.43
2023-01-25T06:27:18.380Z,19.97
2023-01-25T06:29:46.264Z,20.60
2023-01-25T06:32:14.390Z,19.27
2023-01-25T06:34:42.361Z,19.43
2023-01-25T06:37:10.286Z,19.77
2023-01-25T06:39:38.235Z,20.80
2023-01-25T06:42:06.197Z,21.13
2023-01-25T06:44:35.533Z,20.20
2023-01-25T06:47:03.500Z,21.53
2023-01-25T06:49:31.478Z,20.73
2023-01-25T06:52:01.227Z,19.30
2023-01-25T06:54:29.306Z,20.43
2023-01-25T06:56:57.232Z,19.37
2023-01-25T06:59:25.114Z,19.83
2023-01-25T07:01:54.488Z,19.20
2023-01-25T07:04:22.677Z,19.63
2023-01-25T07:06:50.745Z,19.33
2023-01-25T07:09:23.777Z,18.67
2023-01-25T07:11:51.836Z,21.53
2023-01-25T07:14:20.137Z,20.37
2023-01-25T07:16:48.132Z,20.63
2023-01-25T07:19:17.937Z,20.87
2023-01-25T07:21:47.149Z,19.50
2023-01-25T07:24:15.851Z,21.33
2023-01-25T07:26:43.819Z,19.57
2023-01-25T07:29:14.479Z,18.07
2023-01-25T07:31:42.843Z,19.37
2023-01-25T07:34:11.982Z,20.00
2023-01-25T07:36:41.473Z,18.73
2023-01-25T07:39:13.529Z,18.33
2023-01-25T07:41:41.542Z,18.77
2023-01-25T07:44:11.187Z,18.40
2023-01-25T07:46:39.143Z,18.90
2023-01-25T07:49:07.040Z,18.27
2023-01-25T07:51:34.947Z,18.00
2023-01-25T07:54:05.301Z,18.47
2023-01-25T07:56:33.956Z,18.17
2023-01-25T07:59:02.753Z,17.90
2023-01-25T08:01:32.175Z,20.43
2023-01-25T08:04:00.124Z,18.83
2023-01-25T08:06:32.206Z,19.57
2023-01-25T08:09:00.177Z,20.47
2023-01-25T08:11:30.358Z,18.80
2023-01-25T08:13:58.317Z,19.30
2023-01-25T08:16:27.265Z,20.77
2023-01-25T08:18:56.048Z,19.97
2023-01-25T08:21:24.376Z,20.03
2023-01-25T08:23:52.541Z,21.23
2023-01-25T08:26:21.120Z,22.00
2023-01-25T08:28:53.056Z,20.63
2023-01-25T08:31:22.114Z,20.93
2023-01-25T08:33:50.136Z,21.87
2023-01-25T08:36:18.718Z,22.03
2023-01-25T08:38:46.856Z,20.70
2023-01-25T08:41:16.093Z,21.33
2023-01-25T08:43:44.175Z,21.60
2023-01-25T08:46:13.781Z,21.03
2023-01-25T08:48:41.892Z,20.83
2023-01-25T08:51:10.520Z,22.63
2023-01-25T08:53:38.606Z,21.30
2023-01-25T08:56:06.988Z,21.60
2023-01-25T08:58:34.995Z,21.63
2023-01-25T09:01:03.980Z,20.77
2023-01-25T09:03:33.422Z,19.13
2023-01-25T09:06:01.373Z,19.47
2023-01-25T09:08:29.403Z,19.30
2023-01-25T09:11:01.448Z,18.33
2023-01-25T09:13:29.460Z,19.97
2023-01-25T09:16:01.102Z,19.17
2023-01-25T09:18:29.204Z,20.73
2023-01-25T09:20:59.022Z,20.00
2023-01-25T09:23:27.126Z,19.47
2023-01-25T09:25:58.565Z,18.77
2023-01-25T09:28:26.525Z,19.20
2023-01-25T09:31:18.521Z,20.07
2023-01-25T09:33:45.589Z,19.70
2023-01-25T09:36:15.679Z,22.50
2023-01-25T09:38:43.672Z,25.73
2023-01-25T09:41:29.910Z,24.87
2023-01-25T09:44:17.197Z,25.03
2023-01-25T09:46:48.911Z,18.53
2023-01-25T09:49:42.228Z,21.20
2023-01-25T09:52:21.888Z,27.23
2023-01-25T09:54:50.437Z,26.83
2023-01-25T09:57:20.377Z,24.33
2023-01-25T09:59:49.202Z,21.10
2023-01-25T10:02:24.034Z,20.60
2023-01-25T10:04:52.244Z,21.30
2023-01-25T10:07:23.081Z,25.30
2023-01-25T10:09:53.047Z,19.83
2023-01-25T10:12:21.786Z,20.27
2023-01-25T10:14:50.348Z,20.07
2023-01-25T10:17:22.166Z,20.10
2023-01-25T10:19:56.779Z,19.13
2023-01-25T10:22:28.931Z,19.50
2023-01-25T10:25:13.839Z,18.43
2023-01-25T10:27:44.032Z,18.23
2023-01-25T10:30:22.095Z,16.27
2023-01-25T10:32:55.849Z,18.10
2023-01-25T10:35:35.140Z,18.13
2023-01-25T10:38:08.184Z,16.53
2023-01-25T10:40:40.974Z,19.10
2023-01-25T10:43:13.049Z,18.90
2023-01-25T10:45:43.222Z,19.53
2023-01-25T10:48:13.814Z,19.30
2023-01-25T10:50:46.860Z,17.53
2023-01-25T10:53:30.059Z,18.20
2023-01-25T10:56:19.418Z,19.03
2023-01-25T10:58:48.393Z,19.60
2023-01-25T11:01:26.514Z,19.00
2023-01-25T11:03:54.723Z,18.20
2023-01-25T11:06:30.999Z,19.57
2023-01-25T11:09:00.389Z,19.27
2023-01-25T11:11:32.366Z,18.77
2023-01-25T11:14:00.589Z,18.80
2023-01-25T11:16:31.390Z,18.03
2023-01-25T11:18:59.600Z,18.37
2023-01-25T11:21:28.331Z,20.27
2023-01-25T11:24:05.386Z,19.23
2023-01-25T11:26:34.376Z,18.90
2023-01-25T11:29:13.430Z,19.00
2023-01-25T11:31:42.220Z,18.97
2023-01-25T11:34:11.867Z,18.63
2023-01-25T11:36:53.223Z,18.93
2023-01-25T11:39:29.575Z,20.30
2023-01-25T11:42:03.594Z,18.87
2023-01-25T11:44:45.326Z,20.33
2023-01-25T11:47:18.869Z,18.90
2023-01-25T11:49:49.666Z,19.17
2023-01-25T11:52:24.876Z,19.97
2023-01-25T11:54:58.456Z,20.70
2023-01-25T11:57:33.421Z,20.20
2023-01-25T12:00:11.870Z,22.80
2023-01-25T12:03:12.643Z,22.37
2023-01-25T12:05:45.555Z,19.53
2023-01-25T12:08:33.039Z,21.80
2023-01-25T12:11:05.599Z,20.67
2023-01-25T12:13:39.393Z,21.63
2023-01-25T12:16:21.131Z,21.50
2023-01-25T12:19:13.678Z,21.37
2023-01-25T12:21:49.729Z,20.03
2023-01-25T12:24:33.413Z,21.10
2023-01-25T12:27:09.933Z,21.17
2023-01-25T12:29:39.247Z,23.73
2023-01-25T12:32:09.800Z,25.80
2023-01-25T12:34:38.800Z,25.77
2023-01-25T12:37:11.160Z,25.90
2023-01-25T12:39:41.244Z,23.47
2023-01-25T12:42:14.429Z,23.53
2023-01-25T12:44:45.697Z,22.47
2023-01-25T12:47:17.123Z,23.00
2023-01-25T12:49:47.784Z,24.73
2023-01-25T12:52:20.512Z,72.40
2023-01-25T12:54:48.549Z,23.93
2023-01-25T12:57:25.993Z,22.57
2023-01-25T12:59:58.313Z,20.60
2023-01-25T13:02:38.710Z,18.67
2023-01-25T13:05:16.319Z,17.80
2023-01-25T13:07:45.460Z,19.00
2023-01-25T13:10:17.358Z,19.83
2023-01-25T13:12:53.806Z,19.57
2023-01-25T13:15:38.716Z,19.70
2023-01-25T13:18:38.118Z,20.10
2023-01-25T13:21:11.576Z,20.17
2023-01-25T13:23:43.994Z,21.23
2023-01-25T13:26:40.675Z,20.73
2023-01-25T13:29:53.140Z,20.73
2023-01-25T13:32:57.258Z,26.63
2023-01-25T13:35:46.368Z,23.57
2023-01-25T13:38:29.812Z,22.50
2023-01-25T13:41:16.754Z,22.47
2023-01-25T13:43:49.484Z,21.97
2023-01-25T13:46:21.061Z,18.73
2023-01-25T13:48:53.835Z,20.63
2023-01-25T13:51:23.216Z,22.30
2023-01-25T13:53:59.683Z,21.97
2023-01-25T13:56:30.533Z,13.97
2023-01-25T13:58:58.637Z,5.10
2023-01-25T14:01:27.186Z,2.77
2023-01-25T14:03:56.963Z,2.80
2023-01-25T14:06:27.707Z,2.50
2023-01-25T14:08:57.067Z,1.87
2023-01-25T14:11:25.830Z,2.40
2023-01-25T14:14:01.505Z,2.33
2023-01-25T14:16:30.227Z,2.50
2023-01-25T14:19:05.062Z,2.73
2023-01-25T14:21:34.502Z,2.20
2023-01-25T14:24:10.303Z,3.10
2023-01-25T14:26:41.977Z,3.50
2023-01-25T14:29:31.807Z,3.90
2023-01-25T14:32:00.981Z,4.13
2023-01-25T14:34:29.046Z,3.87
2023-01-25T14:37:08.461Z,3.30
2023-01-25T14:39:36.519Z,3.43
2023-01-25T14:42:04.690Z,2.90
2023-01-25T14:44:34.064Z,2.77
2023-01-25T14:47:20.983Z,2.97
2023-01-25T14:49:49.100Z,3.40
2023-01-25T14:52:19.839Z,3.67
2023-01-25T14:54:49.494Z,4.43
2023-01-25T14:57:34.582Z,6.53
2023-01-25T15:00:06.245Z,5.77
2023-01-25T15:02:38.333Z,3.97
2023-01-25T15:05:15.574Z,3.30
2023-01-25T15:07:46.560Z,4.30
2023-01-25T15:10:19.650Z,5.20
2023-01-25T15:13:04.187Z,4.97
2023-01-25T15:15:36.326Z,4.00
2023-01-25T15:18:04.369Z,3.50
2023-01-25T15:20:38.934Z,3.90
2023-01-25T15:23:21.564Z,4.33
2023-01-25T15:25:51.104Z,4.23
2023-01-25T15:28:19.102Z,3.63
2023-01-25T15:30:47.143Z,3.23
2023-01-25T15:33:19.110Z,3.83
2023-01-25T15:35:47.387Z,3.50
2023-01-25T15:38:16.803Z,3.20
2023-01-25T15:40:45.045Z,3.77
2023-01-25T15:43:13.878Z,3.73
2023-01-25T15:45:42.025Z,4.10
2023-01-25T15:48:13.520Z,3.10
2023-01-25T15:50:41.781Z,3.23
2023-01-25T15:53:13.874Z,3.80
2023-01-25T15:55:44.099Z,3.60
2023-01-25T15:58:14.093Z,4.07
2023-01-25T16:00:42.084Z,3.63
2023-01-25T16:03:10.025Z,3.97
2023-01-25T16:05:38.025Z,3.90
2023-01-25T16:08:06.384Z,3.63
2023-01-25T16:10:35.655Z,5.00
2023-01-25T16:13:05.161Z,4.30
2023-01-25T16:15:33.168Z,5.10
2023-01-25T16:18:01.200Z,4.07
2023-01-25T16:20:29.607Z,4.30
2023-01-25T16:22:57.547Z,3.90
2023-01-25T16:25:25.507Z,4.10
2023-01-25T16:27:53.747Z,4.10
2023-01-25T16:30:25.851Z,4.73
2023-01-25T16:32:53.875Z,4.77
2023-01-25T16:35:21.880Z,5.17
2023-01-25T16:37:50.795Z,4.90
2023-01-25T16:40:25.534Z,4.73
2023-01-25T16:42:53.603Z,5.20
2023-01-25T16:45:24.133Z,4.90
2023-01-25T16:47:52.042Z,5.60
2023-01-25T16:50:20.774Z,6.00
2023-01-25T16:52:50.051Z,6.13
2023-01-25T16:55:18.430Z,5.40
2023-01-25T16:57:46.521Z,5.47
2023-01-25T17:00:15.438Z,5.57
2023-01-25T17:02:58.234Z,5.60
2023-01-25T17:05:27.860Z,5.83
2023-01-25T17:07:55.842Z,5.67
2023-01-25T17:10:24.540Z,6.40
2023-01-25T17:12:52.551Z,6.13
2023-01-25T17:15:20.569Z,6.90
2023-01-25T17:17:50.906Z,8.27
2023-01-25T17:20:19.067Z,12.03
2023-01-25T17:22:51.058Z,16.67
2023-01-25T17:25:19.101Z,18.27
2023-01-25T17:27:47.264Z,10.70
2023-01-25T17:30:15.707Z,9.03
2023-01-25T17:32:43.737Z,9.67
2023-01-25T17:35:13.065Z,8.47
2023-01-25T17:37:41.198Z,9.03
2023-01-25T17:40:11.420Z,9.97
2023-01-25T17:42:39.635Z,7.80
2023-01-25T17:45:09.310Z,10.13
2023-01-25T17:47:37.464Z,8.60
2023-01-25T17:50:05.885Z,9.20
2023-01-25T17:52:35.346Z,9.83
2023-01-25T17:55:03.807Z,9.50
2023-01-25T17:57:31.806Z,10.20
2023-01-25T17:59:59.743Z,10.10
2023-01-25T18:02:27.683Z,9.53
2023-01-25T18:04:57.863Z,9.50
2023-01-25T18:07:26.130Z,11.07
2023-01-25T18:09:55.465Z,9.40
2023-01-25T18:12:23.508Z,7.97
2023-01-25T18:14:51.724Z,7.70
2023-01-25T18:17:19.644Z,4.53
2023-01-25T18:19:48.989Z,4.70
2023-01-25T18:22:17.400Z,5.57
2023-01-25T18:24:46.460Z,4.80
2023-01-25T18:27:19.598Z,5.93
2023-01-25T18:29:50.633Z,4.67
2023-01-25T18:32:18.724Z,4.60
2023-01-25T18:34:48.268Z,3.53
2023-01-25T18:37:20.585Z,3.27
2023-01-25T18:39:49.188Z,3.60
2023-01-25T18:42:18.749Z,2.60
2023-01-25T18:44:48.508Z,2.80
2023-01-25T18:47:18.588Z,2.50
2023-01-25T18:49:47.100Z,1.97
2023-01-25T18:52:16.671Z,2.87
2023-01-25T18:54:44.801Z,3.53
2023-01-25T18:57:13.308Z,2.57
2023-01-25T18:59:42.683Z,2.20
2023-01-25T19:02:11.570Z,3.20
2023-01-25T19:04:40.010Z,2.70
2023-01-25T19:07:08.035Z,2.87
2023-01-25T19:09:36.084Z,5.27
2023-01-25T19:12:04.088Z,11.07
2023-01-25T19:14:32.032Z,16.03
2023-01-25T19:17:01.370Z,12.10
2023-01-25T19:19:32.243Z,12.90
2023-01-25T19:22:00.266Z,12.03
2023-01-25T19:24:28.336Z,14.07
2023-01-25T19:26:56.360Z,22.20
2023-01-25T19:29:24.327Z,13.17
2023-01-25T19:31:52.386Z,25.70
2023-01-25T19:34:21.780Z,27.00
2023-01-25T19:36:50.639Z,27.10
2023-01-25T19:39:19.111Z,15.63
2023-01-25T19:41:47.062Z,14.40
2023-01-25T19:44:15.400Z,6.87
2023-01-25T19:46:43.422Z,6.80
2023-01-25T19:49:11.825Z,12.07
2023-01-25T19:51:42.723Z,17.50
2023-01-25T19:54:12.870Z,17.27
2023-01-25T19:56:41.511Z,7.13
2023-01-25T19:59:11.074Z,5.73
2023-01-25T20:01:43.942Z,8.07
2023-01-25T20:04:12.454Z,7.30
2023-01-25T20:06:41.790Z,8.73
2023-01-25T20:09:09.757Z,13.33
2023-01-25T20:11:38.472Z,9.23
2023-01-25T20:14:06.497Z,12.27
2023-01-25T20:16:35.124Z,6.40
2023-01-25T20:19:03.136Z,6.30
2023-01-25T20:21:32.068Z,13.13
2023-01-25T20:24:06.228Z,5.33
2023-01-25T20:26:36.146Z,13.17
2023-01-25T20:29:04.217Z,10.77
2023-01-25T20:31:33.810Z,4.33
2023-01-25T20:34:03.118Z,9.37
2023-01-25T20:36:31.608Z,8.40
2023-01-25T20:39:00.966Z,6.20
2023-01-25T20:41:28.937Z,4.17
2023-01-25T20:44:00.168Z,10.90
2023-01-25T20:46:28.289Z,5.33
2023-01-25T20:48:56.395Z,12.60
2023-01-25T20:51:24.509Z,6.47
2023-01-25T20:53:54.536Z,10.93
2023-01-25T20:56:24.067Z,5.43
2023-01-25T20:58:52.003Z,5.80
2023-01-25T21:01:20.860Z,4.50
2023-01-25T21:03:49.314Z,3.73
2023-01-25T21:06:17.306Z,4.00
2023-01-25T21:08:45.235Z,3.67
2023-01-25T21:11:14.921Z,4.30
2023-01-25T21:13:44.241Z,4.13
2023-01-25T21:16:13.320Z,3.13
2023-01-25T21:18:41.917Z,3.90
2023-01-25T21:21:10.437Z,3.50
2023-01-25T21:23:39.335Z,4.40
2023-01-25T21:26:07.554Z,3.70
2023-01-25T21:28:35.605Z,4.90
2023-01-25T21:31:09.740Z,3.60
2023-01-25T21:33:38.044Z,3.07
2023-01-25T21:36:14.262Z,3.90
2023-01-25T21:38:42.457Z,3.17
2023-01-25T21:41:11.734Z,3.93
2023-01-25T21:43:53.498Z,3.43
2023-01-25T21:46:27.274Z,3.20
2023-01-25T21:49:12.461Z,3.17
2023-01-25T21:51:46.956Z,4.13
2023-01-25T21:54:15.835Z,3.43
2023-01-25T21:56:43.902Z,2.93
2023-01-25T21:59:11.823Z,3.03
2023-01-25T22:01:41.122Z,3.30
2023-01-25T22:04:09.104Z,3.67
2023-01-25T22:06:37.032Z,3.63
2023-01-25T22:09:05.157Z,3.60
2023-01-25T22:11:33.097Z,4.43
2023-01-25T22:14:01.815Z,3.53
2023-01-25T22:16:30.434Z,3.63
2023-01-25T22:19:00.173Z,2.97
2023-01-25T22:21:30.812Z,2.80
2023-01-25T22:23:58.938Z,2.93
2023-01-25T22:26:28.036Z,3.47
2023-01-25T22:28:56.907Z,3.03
2023-01-25T22:31:25.438Z,3.67
2023-01-25T22:33:53.715Z,2.73
2023-01-25T22:36:24.265Z,2.80
2023-01-25T22:38:52.366Z,3.20
2023-01-25T22:41:21.162Z,3.17
2023-01-25T22:43:49.209Z,3.50
2023-01-25T22:46:18.516Z,2.80
2023-01-25T22:48:46.811Z,3.27
2023-01-25T22:51:16.151Z,3.27
2023-01-25T22:53:45.469Z,3.63
2023-01-25T22:56:17.488Z,3.53
2023-01-25T22:58:45.998Z,3.23
2023-01-25T23:01:15.427Z,3.37
2023-01-25T23:03:43.372Z,3.00
2023-01-25T23:06:13.399Z,3.43
2023-01-25T23:08:41.311Z,3.20
2023-01-25T23:11:12.025Z,2.60
2023-01-25T23:13:40.699Z,3.07
2023-01-25T23:16:08.393Z,3.40
2023-01-25T23:18:52.084Z,3.50
2023-01-25T23:21:21.251Z,3.73
2023-01-25T23:23:49.333Z,3.00
2023-01-25T23:26:18.712Z,3.60
2023-01-25T23:28:50.747Z,4.23
2023-01-25T23:31:19.735Z,3.70
2023-01-25T23:33:48.348Z,3.90
2023-01-25T23:36:17.224Z,5.17
2023-01-25T23:38:46.073Z,6.93
2023-01-25T23:41:14.062Z,6.67
2023-01-25T23:43:44.297Z,5.73
2023-01-25T23:46:14.247Z,11.97
2023-01-25T23:48:42.324Z,9.10
2023-01-25T23:51:11.070Z,10.90
2023-01-25T23:53:39.325Z,6.33
2023-01-25T23:56:08.595Z,6.37
2023-01-25T23:58:36.919Z,5.70
